createdAt,value
2019-03-20T00:01:08.014Z,13.47
2019-03-20T00:06:09.787Z,14.83
2019-03-20T00:11:12.244Z,23.77
2019-03-20T00:16:14.694Z,20.13
2019-03-20T00:21:17.148Z,22.40
2019-03-20T00:26:19.616Z,16.67
2019-03-20T00:31:22.074Z,19.77
2019-03-20T00:36:24.542Z,16.57
2019-03-20T00:41:27.000Z,14.67
2019-03-20T00:46:29.471Z,19.70
2019-03-20T00:51:31.920Z,11.57
2019-03-20T00:56:34.396Z,13.23
2019-03-20T01:01:36.849Z,10.17
2019-03-20T01:06:39.303Z,14.53
2019-03-20T01:11:41.777Z,12.13
2019-03-20T01:16:44.225Z,11.87
2019-03-20T01:21:46.790Z,10.10
2019-03-20T01:26:49.270Z,8.70
2019-03-20T01:31:51.798Z,16.53
2019-03-20T01:36:54.260Z,10.43
2019-03-20T01:41:56.728Z,14.93
2019-03-20T01:46:59.207Z,10.70
2019-03-20T01:52:01.654Z,11.17
2019-03-20T01:57:04.099Z,9.57
2019-03-20T02:02:06.560Z,21.17
2019-03-20T02:07:09.019Z,14.13
2019-03-20T02:12:11.463Z,18.63
2019-03-20T02:17:13.936Z,13.60
2019-03-20T02:22:16.403Z,14.33
2019-03-20T02:27:18.864Z,10.10
2019-03-20T02:32:21.318Z,11.40
2019-03-20T02:37:23.774Z,15.70
2019-03-20T02:42:26.268Z,14.53
2019-03-20T02:47:28.719Z,13.93
2019-03-20T02:52:31.184Z,12.60
2019-03-20T02:57:33.649Z,14.07
2019-03-20T03:02:36.113Z,13.27
2019-03-20T03:07:38.623Z,12.33
2019-03-20T03:12:41.090Z,15.37
2019-03-20T03:17:43.545Z,10.63
2019-03-20T03:22:46.007Z,17.43
2019-03-20T03:27:48.462Z,13.73
2019-03-20T03:32:50.928Z,14.03
2019-03-20T03:37:53.389Z,16.10
2019-03-20T03:42:55.847Z,12.77
2019-03-20T03:47:58.337Z,16.53
2019-03-20T03:53:00.780Z,11.50
2019-03-20T03:58:03.243Z,16.70
2019-03-20T04:03:05.743Z,16.43
2019-03-20T04:08:08.206Z,13.50
2019-03-20T04:13:10.669Z,14.07
2019-03-20T04:18:13.124Z,14.93
2019-03-20T04:23:15.584Z,12.17
2019-03-20T04:28:18.032Z,17.97
2019-03-20T04:33:20.487Z,14.03
2019-03-20T04:38:22.924Z,15.67
2019-03-20T04:43:25.394Z,12.67
2019-03-20T04:48:27.845Z,13.87
2019-03-20T04:53:30.305Z,9.37
2019-03-20T04:58:32.793Z,13.30
2019-03-20T05:03:35.255Z,11.53
2019-03-20T05:08:37.711Z,13.37
2019-03-20T05:13:40.173Z,13.07
2019-03-20T05:18:42.632Z,14.07
2019-03-20T05:23:45.089Z,10.77
2019-03-20T05:28:47.553Z,12.20
2019-03-20T05:33:50.018Z,12.43
2019-03-20T05:38:52.486Z,9.07
2019-03-20T05:43:54.937Z,13.33
2019-03-20T05:48:57.398Z,13.03
2019-03-20T05:53:59.862Z,12.13
2019-03-20T05:59:02.327Z,11.13
2019-03-20T06:04:04.793Z,13.80
2019-03-20T06:09:07.244Z,15.47
2019-03-20T06:14:09.720Z,10.00
2019-03-20T06:19:12.342Z,12.77
2019-03-20T06:24:14.809Z,10.83
2019-03-20T06:29:17.272Z,16.10
2019-03-20T06:34:19.731Z,10.77
2019-03-20T06:39:22.217Z,19.70
2019-03-20T06:44:24.669Z,17.13
2019-03-20T06:49:27.125Z,13.53
2019-03-20T06:54:29.807Z,18.73
2019-03-20T06:59:35.549Z,15.60
2019-03-20T07:04:55.997Z,22.73
2019-03-20T07:10:10.333Z,14.73
2019-03-20T07:15:12.790Z,13.67
2019-03-20T07:20:16.983Z,11.93
2019-03-20T07:25:17.705Z,13.87
2019-03-20T07:30:20.161Z,18.07
2019-03-20T07:35:22.713Z,16.67
2019-03-20T07:40:25.178Z,15.53
2019-03-20T07:45:27.694Z,14.60
2019-03-20T07:50:30.172Z,13.00
2019-03-20T07:55:32.637Z,14.07
2019-03-20T08:00:35.090Z,12.13
2019-03-20T08:05:37.559Z,11.20
2019-03-20T08:10:40.190Z,13.10
2019-03-20T08:15:42.697Z,11.57
2019-03-20T08:20:45.194Z,8.93
2019-03-20T08:25:47.697Z,12.73
2019-03-20T08:30:50.114Z,6.50
2019-03-20T08:35:52.568Z,7.37
2019-03-20T08:40:55.030Z,7.78
2019-03-20T08:45:57.486Z,10.95
2019-03-20T08:50:59.981Z,6.40
2019-03-20T08:56:02.426Z,9.68
2019-03-20T09:01:04.882Z,9.70
2019-03-20T09:06:09.123Z,9.85
2019-03-20T09:11:11.593Z,7.70
2019-03-20T09:16:14.058Z,8.73
2019-03-20T09:21:16.512Z,8.90
2019-03-20T09:26:18.975Z,10.13
2019-03-20T09:31:21.425Z,7.18
2019-03-20T09:36:23.880Z,9.38
2019-03-20T09:41:26.326Z,7.85
2019-03-20T09:46:28.772Z,9.05
2019-03-20T09:51:31.225Z,12.50
2019-03-20T09:56:33.678Z,8.65
2019-03-20T10:01:36.143Z,6.78
2019-03-20T10:06:38.608Z,8.00
2019-03-20T10:11:41.141Z,8.55
2019-03-20T10:16:43.595Z,7.15
2019-03-20T10:21:46.043Z,8.38
2019-03-20T10:26:48.500Z,11.50
2019-03-20T10:31:50.967Z,7.12
2019-03-20T10:36:53.429Z,7.80
2019-03-20T10:41:55.881Z,8.55
2019-03-20T10:46:58.333Z,6.43
2019-03-20T10:52:00.805Z,8.23
2019-03-20T10:57:03.265Z,8.33
2019-03-20T11:02:05.743Z,7.32
2019-03-20T11:07:08.195Z,10.95
2019-03-20T11:12:10.652Z,6.28
2019-03-20T11:17:13.119Z,4.53
2019-03-20T11:22:19.117Z,7.90
2019-03-20T11:27:18.061Z,9.30
2019-03-20T11:32:20.512Z,9.83
2019-03-20T11:37:22.964Z,8.40
2019-03-20T11:42:25.422Z,11.67
2019-03-20T11:47:28.340Z,7.47
2019-03-20T11:52:30.856Z,7.63
2019-03-20T11:57:33.319Z,10.20
2019-03-20T12:02:35.780Z,7.43
2019-03-20T12:07:38.235Z,14.17
2019-03-20T12:12:40.680Z,8.90
2019-03-20T12:17:43.135Z,8.47
2019-03-20T12:22:45.618Z,8.80
2019-03-20T12:27:48.077Z,8.77
2019-03-20T12:32:50.614Z,11.40
2019-03-20T12:37:53.065Z,17.27
2019-03-20T12:42:55.527Z,10.73
2019-03-20T12:47:57.998Z,10.53
2019-03-20T12:53:01.934Z,10.30
2019-03-20T12:58:04.217Z,9.33
2019-03-20T13:03:05.400Z,6.87
2019-03-20T13:08:07.850Z,7.80
2019-03-20T13:13:10.486Z,8.60
2019-03-20T13:18:12.931Z,12.67
2019-03-20T13:23:21.184Z,7.23
2019-03-20T13:28:23.659Z,13.83
2019-03-20T13:33:26.406Z,7.73
2019-03-20T13:38:28.637Z,9.40
2019-03-20T13:43:31.114Z,10.10
2019-03-20T13:48:33.568Z,9.43
2019-03-20T13:53:36.020Z,8.53
2019-03-20T13:58:38.489Z,7.57
2019-03-20T14:03:40.951Z,9.90
2019-03-20T14:08:43.425Z,9.57
2019-03-20T14:13:45.906Z,8.13
2019-03-20T14:18:48.366Z,7.03
2019-03-20T14:23:50.838Z,7.30
2019-03-20T14:28:53.293Z,6.20
2019-03-20T14:33:55.755Z,8.37
2019-03-20T14:38:58.219Z,10.23
2019-03-20T14:44:00.682Z,8.60
2019-03-20T14:49:03.168Z,10.63
2019-03-20T14:54:05.634Z,9.03
2019-03-20T14:59:08.103Z,6.23
2019-03-20T15:04:10.582Z,10.43
2019-03-20T15:09:13.042Z,11.23
2019-03-20T15:14:15.508Z,8.17
2019-03-20T15:19:17.965Z,9.33
2019-03-20T15:24:20.452Z,12.43
2019-03-20T15:29:22.920Z,8.13
2019-03-20T15:34:25.370Z,8.27
2019-03-20T15:39:27.831Z,16.33
2019-03-20T15:44:30.298Z,10.00
2019-03-20T15:49:32.773Z,7.43
2019-03-20T15:54:35.226Z,5.90
2019-03-20T15:59:37.686Z,7.27
2019-03-20T16:04:40.136Z,8.47
2019-03-20T16:09:42.599Z,9.80
2019-03-20T16:14:45.060Z,13.83
2019-03-20T16:19:47.543Z,10.00
2019-03-20T16:24:50.034Z,11.20
2019-03-20T16:29:52.506Z,13.33
2019-03-20T16:34:54.976Z,11.90
2019-03-20T16:39:57.439Z,9.47
2019-03-20T16:44:59.916Z,26.13
2019-03-20T16:50:02.392Z,14.20
2019-03-20T16:55:04.867Z,10.17
2019-03-20T17:00:13.099Z,13.73
2019-03-20T17:05:15.570Z,15.70
2019-03-20T17:10:21.012Z,13.90
2019-03-20T17:15:23.475Z,12.70
2019-03-20T17:20:25.947Z,14.97
2019-03-20T17:25:28.424Z,18.90
2019-03-20T17:30:30.890Z,16.17
2019-03-20T17:35:33.375Z,12.20
2019-03-20T17:40:35.824Z,10.43
2019-03-20T17:45:38.287Z,21.20
2019-03-20T17:50:40.833Z,26.17
2019-03-20T17:55:43.405Z,38.80
2019-03-20T18:00:45.866Z,60.63
2019-03-20T18:05:48.372Z,115.97
2019-03-20T18:10:50.848Z,125.13
2019-03-20T18:15:53.323Z,109.67
2019-03-20T18:20:55.808Z,49.80
2019-03-20T18:25:58.273Z,15.10
2019-03-20T18:31:00.759Z,19.03
2019-03-20T18:36:03.237Z,15.33
2019-03-20T18:41:05.702Z,13.83
2019-03-20T18:46:08.202Z,16.57
2019-03-20T18:51:10.658Z,11.13
2019-03-20T18:56:13.155Z,12.37
2019-03-20T19:01:15.628Z,19.50
2019-03-20T19:06:18.143Z,29.77
2019-03-20T19:11:20.600Z,33.43
2019-03-20T19:16:23.192Z,24.90
2019-03-20T19:21:25.658Z,15.07
2019-03-20T19:26:28.117Z,13.60
2019-03-20T19:31:30.601Z,16.87
2019-03-20T19:36:33.089Z,18.60
2019-03-20T19:41:35.543Z,16.33
2019-03-20T19:46:38.008Z,14.30
2019-03-20T19:51:40.474Z,12.80
2019-03-20T19:56:42.955Z,12.70
2019-03-20T20:01:45.446Z,15.10
2019-03-20T20:06:47.931Z,19.00
2019-03-20T20:11:50.486Z,30.43
2019-03-20T20:16:52.966Z,22.37
2019-03-20T20:21:55.468Z,19.33
2019-03-20T20:26:57.950Z,17.83
2019-03-20T20:32:00.428Z,19.33
2019-03-20T20:37:02.909Z,25.57
2019-03-20T20:42:05.414Z,31.83
2019-03-20T20:47:07.911Z,23.83
2019-03-20T20:52:19.028Z,26.20
2019-03-20T20:57:12.854Z,21.80
2019-03-20T21:02:15.324Z,21.43
2019-03-20T21:07:17.804Z,20.07
2019-03-20T21:12:20.268Z,22.53
2019-03-20T21:17:22.780Z,18.30
2019-03-20T21:22:31.279Z,11.87
2019-03-20T21:27:54.926Z,17.23
2019-03-20T21:32:57.372Z,15.60
2019-03-20T21:38:05.312Z,24.53
2019-03-20T21:43:41.762Z,19.27
2019-03-20T21:48:44.183Z,13.83
2019-03-20T21:54:01.654Z,19.50
2019-03-20T21:59:09.836Z,16.13
2019-03-20T22:04:12.295Z,11.67
2019-03-20T22:09:14.765Z,20.63
2019-03-20T22:14:17.220Z,17.80
2019-03-20T22:19:31.386Z,17.23
2019-03-20T22:24:36.569Z,15.50
2019-03-20T22:29:39.065Z,17.30
2019-03-20T22:34:59.933Z,15.77
2019-03-20T22:40:14.739Z,22.77
2019-03-20T22:45:51.119Z,21.80
2019-03-20T22:51:08.587Z,14.40
2019-03-20T22:56:32.736Z,17.70
2019-03-20T23:01:38.002Z,20.00
2019-03-20T23:06:40.472Z,23.73
2019-03-20T23:11:42.949Z,22.03
2019-03-20T23:16:45.389Z,18.00
2019-03-20T23:21:47.870Z,19.40
2019-03-20T23:26:50.328Z,21.93
2019-03-20T23:31:52.827Z,20.23
2019-03-20T23:36:55.303Z,27.63
2019-03-20T23:41:57.782Z,23.80
2019-03-20T23:47:00.251Z,21.27
2019-03-20T23:52:02.743Z,15.90
2019-03-20T23:57:05.201Z,22.10
